Cholsey, United Kingdom
Current Conditions -  °F | °C
As of 9:50 PM on Wednesday 28 Jan 2015 (Local Time) from EGUB Reporting Station
Clear Clear  
Wind Chill: 29°   Ceiling: Unl
Heat Index: 37°   Visibility: 6mi
Dew Point: 28°   Wind: 14mph
Humidity: 70%   Direction: 230°SW
Pressure: 29.53"   Gusts: NA
Location:  51.57°N, 1.15°W
Report Text: EGUB 282150Z 23012KT CAVOK 03/M02 Q1000 BLU NOSIG
Loading
Personal Weather Stations






























Interactive Weather Map New forecast layout! Learn more

10-Day Weather Forecast

Advertisements
Track Severe Weather on mobile